»·PEaware :: WAT169 KSNA-KLAS

WAT169 :: KSNA-KLAS

FLIGHT INFORMATION

Flight Status: Arrived
Operator: Unknown
More flights by this operator :: More flights under this callsign
Pilot: Marty P. (27464)
Aircraft: BOEING 737-800
(B738)
More flights by this aircraft type
Origin: KSNA John Wayne-Orange Co
United States
Destination: KLAS McCarran Intl
United States
More flights between these airports :: More routes between these airports
Route: FINZZ2 MISEN KEPEC6
File this flight plan on PilotEdge
Remarks:
Altitude:
(Current/Filed)
27,000ft
Speed:
(Current/Filed)
470kts
Departed: 20-May-20 06:34 PM
Arrived: 20-May-20 07:22 PM
Distance/Time
Traveled:
197nm/0:48
Distance/Time
To Go:
Arrived

Flight Plot

Page will automatically refresh every two minutes.


Map Options




Map Legend


Flown Route
Filed Route
Departure Airport
Arrival Airport
Navaid (VOR, NDB)
Fix

Horizontal Profiles

Position Reports

Time Latitude Longitude Heading Altitude Ground
Speed
20-May-20 17:59 33.675005 -117.865072 118 66ft 0kts
20-May-20 18:00 33.675005 -117.865072 118 66ft 0kts
20-May-20 18:01 33.675005 -117.865072 118 66ft 0kts
20-May-20 18:02 33.675005 -117.865072 118 66ft 0kts
20-May-20 18:03 33.675005 -117.865072 118 66ft 0kts
20-May-20 18:04 33.675005 -117.865072 118 66ft 0kts
20-May-20 18:05 33.675005 -117.865072 118 66ft 0kts
20-May-20 18:06 33.675005 -117.865072 118 66ft 0kts
20-May-20 18:07 33.675005 -117.865072 118 66ft 0kts
20-May-20 18:08 33.675005 -117.865072 118 66ft 0kts
20-May-20 18:09 33.675005 -117.865072 118 66ft 0kts
20-May-20 18:10 33.675005 -117.865072 118 66ft 0kts
20-May-20 18:11 33.675005 -117.865072 118 66ft 0kts
20-May-20 18:12 33.675005 -117.865072 118 66ft 0kts
20-May-20 18:13 33.675005 -117.865072 118 66ft 0kts
20-May-20 18:14 33.675005 -117.865072 118 66ft 0kts
20-May-20 18:15 33.675005 -117.865072 118 66ft 0kts
20-May-20 18:17 33.675005 -117.865072 118 66ft 0kts
20-May-20 18:18 33.675005 -117.865073 118 66ft 0kts
20-May-20 18:19 33.675005 -117.865073 118 66ft 0kts
20-May-20 18:20 33.675005 -117.865073 118 66ft 0kts
20-May-20 18:21 33.675005 -117.865073 118 66ft 0kts
20-May-20 18:22 33.675005 -117.865073 118 66ft 0kts
20-May-20 18:23 33.675005 -117.865073 118 66ft 0kts
20-May-20 18:24 33.675155 -117.865651 73 66ft 2kts
20-May-20 18:25 33.674921 -117.865965 26 66ft 0kts
20-May-20 18:26 33.674921 -117.865964 26 66ft 0kts
20-May-20 18:27 33.677627 -117.864241 27 66ft 17kts
20-May-20 18:28 33.680273 -117.862689 351 66ft 0kts
20-May-20 18:29 33.680273 -117.862689 350 66ft 0kts
20-May-20 18:30 33.680480 -117.862794 322 66ft 5kts
20-May-20 18:30 33.680667 -117.863125 299 66ft 5kts
20-May-20 18:32 33.681274 -117.865287 208 66ft 0kts
20-May-20 18:33 33.681274 -117.865287 208 66ft 0kts
20-May-20 18:33 33.669580 -117.872697 208 106ft 164kts
20-May-20 18:34 33.622999 -117.892872 189 2323ft 225kts
20-May-20 18:36 33.549416 -117.923610 223 6385ft 257kts
20-May-20 18:36 33.510392 -117.978148 250 9303ft 267kts
20-May-20 18:37 33.525181 -118.061409 310 12151ft 291kts
20-May-20 18:38 33.607666 -118.106390 0 13084ft 374kts
20-May-20 18:39 33.707163 -118.061208 21 15954ft 392kts
20-May-20 18:40 33.806463 -118.003286 20 18406ft 405kts
20-May-20 18:41 33.908113 -117.937558 29 20555ft 426kts
20-May-20 18:42 34.005631 -117.852428 31 22458ft 441kts
20-May-20 18:43 34.098759 -117.752491 41 24194ft 461kts
20-May-20 18:44 34.184380 -117.633779 44 25749ft 476kts
20-May-20 18:45 34.269650 -117.509411 45 27019ft 482kts
20-May-20 18:46 34.353373 -117.384726 45 27035ft 475kts
20-May-20 18:47 34.436640 -117.260253 45 27043ft 477kts
20-May-20 18:48 34.520060 -117.135148 46 27045ft 476kts
20-May-20 18:49 34.603798 -117.011539 45 27034ft 477kts
20-May-20 18:50 34.688955 -116.887193 45 27013ft 479kts
20-May-20 18:51 34.774183 -116.762456 45 27011ft 480kts
20-May-20 18:52 34.862851 -116.642117 38 27007ft 475kts
20-May-20 18:53 34.962104 -116.540610 32 27016ft 464kts
20-May-20 18:54 35.060698 -116.444865 32 25007ft 442kts
20-May-20 18:55 35.149373 -116.344307 40 24025ft 451kts
20-May-20 18:56 35.235429 -116.237060 40 22994ft 436kts
20-May-20 18:57 35.317928 -116.133622 41 20638ft 415kts
20-May-20 18:58 35.396550 -116.034607 42 18732ft 387kts
20-May-20 18:59 35.473340 -115.937557 42 17740ft 388kts
20-May-20 19:00 35.547591 -115.843415 43 15350ft 376kts
20-May-20 19:01 35.617949 -115.753932 44 13739ft 344kts
20-May-20 19:02 35.680001 -115.674693 44 13029ft 302kts
20-May-20 19:03 35.739689 -115.601740 33 13035ft 303kts
20-May-20 19:04 35.818207 -115.571900 1 13036ft 298kts
20-May-20 19:05 35.901657 -115.567453 0 13028ft 301kts
20-May-20 19:06 35.977520 -115.531099 49 12839ft 305kts
20-May-20 19:07 36.012180 -115.435701 68 11362ft 303kts
20-May-20 19:08 36.028669 -115.342336 92 10729ft 276kts
20-May-20 19:09 36.021914 -115.248036 95 9548ft 274kts
20-May-20 19:10 36.015348 -115.155364 94 8453ft 269kts
20-May-20 19:11 36.009433 -115.067193 94 7995ft 240kts
20-May-20 19:12 36.004743 -114.987201 94 7277ft 234kts
20-May-20 19:13 35.999977 -114.907518 94 7006ft 235kts
20-May-20 19:14 36.031699 -114.852570 11 6268ft 226kts
20-May-20 19:15 36.081453 -114.868677 270 5454ft 205kts
20-May-20 19:16 36.073911 -114.933405 268 5299ft 188kts
20-May-20 19:17 36.073612 -114.989798 270 4402ft 152kts
20-May-20 19:18 36.073656 -115.041660 270 3565ft 150kts
20-May-20 19:19 36.073675 -115.093496 268 2744ft 152kts
20-May-20 19:20 36.073623 -115.142571 272 2191ft 60kts
20-May-20 19:21 36.075425 -115.146519 355 2191ft 15kts
20-May-20 19:22 36.079443 -115.147590 334 2191ft 12kts
20-May-20 19:23 36.080320 -115.147277 64 2191ft 0kts

Navigation Log

Ident Type
Flight plan parsing failed, navigation log unavailable